Central Nebraska Regional Airport Grand Island US
ICAO: KGRI
IATA: GRI
Category: Medium
Scheduled Services: Yes

Elevation: 1847 ft
TransAlt. 18000 ft.

Airport Communications:
ATIS:127.4
CLNC DEL:121.9
MINNEAPOLIS CNTR:119.4
CTAF:118.2
GND:121.9
ARNG OPS:38
COLUMBUS RDO:122.45
GRAND ISLAND TWR:118.2
UNICOM:122.95

KGRI Zoom In..

If you have problems with the map follow the link
https://www.worldairports.se/pages/airport.php?
ICAO=KGRI

Runways:

(A) RW 13 length 6608 ft width 100 ft
---- / hdg 128

(B) RW 17 length 7002 ft width 150 ft
---- / hdg 173

(C) RW 31 length 6608 ft width 100 ft
---- / hdg 308

(D) RW 35 length 7002 ft width 150 ft
ILS 111.90 / hdg 353

Location; KGRI
Day. 28 / Time. 11.53 Zulu
* Altimeter: 30.09
* Temperature: -01° c. -30.2°f.
* Wind from: 000° Speed 00 kn.
Dewpoint: -03° c.
Visibility: 10 Statute Miles.
Clouds: Overcast 900 ft.

KGRI 281153Z AUTO 00000KT 10SM OVC009 M01/M03 A3009 RMK AO2 SLP212 T10061033 11006 21011 57006


Wind - Calm.

 
 
jpsmedia worldairports.se 2020   terms of use